Jacksonville, New York
Current Conditions -  °F | °C
As of 2:56 PM on Sunday 23 Nov 2014 (Local Time) from KITH Reporting Station
Overcast Overcast  
Wind Chill: 43°   Ceiling: 6000
Heat Index: 47°   Visibility: 10mi
Dew Point: 39°   Wind: 8mph
Humidity: 73%   Direction: 160°SSE
Pressure: 30.04"   Gusts: NA
Location:  42.5°N, 76.6°W
Report Text: KITH 231956Z 16007KT 10SM OVC060 08/04 A3004 RMK AO2 T00830038 RAE07 P0000 SLP178
Loading
Personal Weather Stations






























Interactive Weather Map New forecast layout! Learn more

10-Day Weather Forecast

Advertisements
Track Severe Weather on mobile